sensor_id;sensor_type;location;lat;lon;timestamp;pressure;altitude;pressure_sealevel;temperature;humidity
77207;BME280;66190;50.708;7.906;2023-05-10T00:00:27;95664.53;;;10.97;96.45
77207;BME280;66190;50.708;7.906;2023-05-10T00:02:53;95662.69;;;10.98;96.51
77207;BME280;66190;50.708;7.906;2023-05-10T00:05:18;95663.06;;;11.01;96.54
77207;BME280;66190;50.708;7.906;2023-05-10T00:07:44;95665.00;;;10.94;96.36
77207;BME280;66190;50.708;7.906;2023-05-10T00:10:12;95664.78;;;10.96;96.44
77207;BME280;66190;50.708;7.906;2023-05-10T00:12:38;95657.34;;;10.91;96.63
77207;BME280;66190;50.708;7.906;2023-05-10T00:15:04;95657.06;;;10.99;96.89
77207;BME280;66190;50.708;7.906;2023-05-10T00:17:30;95662.22;;;11.01;96.81
77207;BME280;66190;50.708;7.906;2023-05-10T00:19:55;95658.94;;;10.99;96.56
77207;BME280;66190;50.708;7.906;2023-05-10T00:22:21;95654.38;;;10.99;96.60
77207;BME280;66190;50.708;7.906;2023-05-10T00:24:46;95656.31;;;10.92;96.69
77207;BME280;66190;50.708;7.906;2023-05-10T00:27:12;95654.00;;;10.96;96.93
77207;BME280;66190;50.708;7.906;2023-05-10T00:29:37;95657.97;;;10.93;96.97
77207;BME280;66190;50.708;7.906;2023-05-10T00:32:02;95654.47;;;10.93;97.00
77207;BME280;66190;50.708;7.906;2023-05-10T00:34:28;95655.50;;;10.92;97.09
77207;BME280;66190;50.708;7.906;2023-05-10T00:36:53;95654.47;;;10.93;97.03
77207;BME280;66190;50.708;7.906;2023-05-10T00:39:19;95650.94;;;10.92;97.13
77207;BME280;66190;50.708;7.906;2023-05-10T00:41:45;95646.81;;;10.90;97.07
77207;BME280;66190;50.708;7.906;2023-05-10T00:44:10;95653.63;;;10.92;97.01
77207;BME280;66190;50.708;7.906;2023-05-10T00:46:35;95656.78;;;10.89;96.97
77207;BME280;66190;50.708;7.906;2023-05-10T00:49:01;95650.78;;;10.87;97.13
77207;BME280;66190;50.708;7.906;2023-05-10T00:51:27;95651.78;;;10.93;97.32
77207;BME280;66190;50.708;7.906;2023-05-10T00:53:52;95655.88;;;10.95;97.33
77207;BME280;66190;50.708;7.906;2023-05-10T00:56:19;95662.69;;;10.98;97.00
77207;BME280;66190;50.708;7.906;2023-05-10T00:58:48;95652.94;;;10.97;96.96
77207;BME280;66190;50.708;7.906;2023-05-10T01:01:13;95658.56;;;10.95;97.03
77207;BME280;66190;50.708;7.906;2023-05-10T01:03:39;95662.53;;;10.93;97.11
77207;BME280;66190;50.708;7.906;2023-05-10T01:06:05;95655.94;;;10.89;97.09
77207;BME280;66190;50.708;7.906;2023-05-10T01:08:31;95661.94;;;10.91;97.12
77207;BME280;66190;50.708;7.906;2023-05-10T01:10:57;95663.34;;;10.93;97.20
77207;BME280;66190;50.708;7.906;2023-05-10T01:13:36;95660.88;;;10.92;97.13
77207;BME280;66190;50.708;7.906;2023-05-10T01:16:02;95663.19;;;10.88;96.69
77207;BME280;66190;50.708;7.906;2023-05-10T01:18:29;95665.88;;;10.88;96.33
77207;BME280;66190;50.708;7.906;2023-05-10T01:32:36;95666.94;;;10.87;96.38
77207;BME280;66190;50.708;7.906;2023-05-10T01:35:30;95669.03;;;10.85;96.44
77207;BME280;66190;50.708;7.906;2023-05-10T01:38:11;95672.09;;;10.89;96.42
77207;BME280;66190;50.708;7.906;2023-05-10T01:41:05;95671.13;;;10.83;96.38
77207;BME280;66190;50.708;7.906;2023-05-10T01:44:02;95661.19;;;10.84;96.43
77207;BME280;66190;50.708;7.906;2023-05-10T01:46:35;95668.19;;;10.85;96.22
77207;BME280;66190;50.708;7.906;2023-05-10T01:49:03;95665.34;;;10.80;96.29
77207;BME280;66190;50.708;7.906;2023-05-10T01:51:39;95666.56;;;10.84;96.55
77207;BME280;66190;50.708;7.906;2023-05-10T01:54:08;95670.88;;;10.85;96.78
77207;BME280;66190;50.708;7.906;2023-05-10T01:56:35;95668.50;;;10.77;96.48
77207;BME280;66190;50.708;7.906;2023-05-10T01:59:06;95672.81;;;10.78;96.38
77207;BME280;66190;50.708;7.906;2023-05-10T02:01:36;95679.63;;;10.80;96.32
77207;BME280;66190;50.708;7.906;2023-05-10T02:04:02;95678.81;;;10.80;96.25
77207;BME280;66190;50.708;7.906;2023-05-10T02:06:30;95672.28;;;10.69;96.28
77207;BME280;66190;50.708;7.906;2023-05-10T02:08:57;95683.88;;;10.70;96.46
77207;BME280;66190;50.708;7.906;2023-05-10T02:11:23;95682.81;;;10.71;96.65
77207;BME280;66190;50.708;7.906;2023-05-10T02:13:50;95686.50;;;10.76;96.90
77207;BME280;66190;50.708;7.906;2023-05-10T02:16:17;95683.06;;;10.69;96.88
77207;BME280;66190;50.708;7.906;2023-05-10T02:18:44;95679.34;;;10.70;96.74
77207;BME280;66190;50.708;7.906;2023-05-10T02:21:11;95679.50;;;10.75;96.74
77207;BME280;66190;50.708;7.906;2023-05-10T02:23:38;95678.44;;;10.76;96.39
77207;BME280;66190;50.708;7.906;2023-05-10T02:26:05;95682.81;;;10.71;95.94
77207;BME280;66190;50.708;7.906;2023-05-10T02:28:32;95693.81;;;10.69;96.18
77207;BME280;66190;50.708;7.906;2023-05-10T02:30:59;95689.41;;;10.75;96.44
77207;BME280;66190;50.708;7.906;2023-05-10T02:33:25;95698.53;;;10.74;96.30
77207;BME280;66190;50.708;7.906;2023-05-10T02:35:52;95690.66;;;10.72;96.47
77207;BME280;66190;50.708;7.906;2023-05-10T02:38:20;95688.66;;;10.68;96.59
77207;BME280;66190;50.708;7.906;2023-05-10T02:40:47;95686.56;;;10.70;96.86
77207;BME280;66190;50.708;7.906;2023-05-10T02:43:14;95688.22;;;10.71;97.09
77207;BME280;66190;50.708;7.906;2023-05-10T02:45:42;95691.88;;;10.76;97.27
77207;BME280;66190;50.708;7.906;2023-05-10T02:48:08;95688.13;;;10.77;97.28
77207;BME280;66190;50.708;7.906;2023-05-10T02:50:35;95692.88;;;10.82;97.29
77207;BME280;66190;50.708;7.906;2023-05-10T02:53:08;95686.50;;;10.76;97.27
77207;BME280;66190;50.708;7.906;2023-05-10T02:55:40;95690.19;;;10.82;97.21
77207;BME280;66190;50.708;7.906;2023-05-10T02:58:06;95694.72;;;10.81;97.16
77207;BME280;66190;50.708;7.906;2023-05-10T03:00:31;95691.06;;;10.76;97.17
77207;BME280;66190;50.708;7.906;2023-05-10T03:02:57;95693.09;;;10.80;97.32
77207;BME280;66190;50.708;7.906;2023-05-10T03:05:23;95690.78;;;10.84;97.32
77207;BME280;66190;50.708;7.906;2023-05-10T03:07:49;95691.81;;;10.83;97.20
77207;BME280;66190;50.708;7.906;2023-05-10T03:10:15;95692.41;;;10.85;97.32
77207;BME280;66190;50.708;7.906;2023-05-10T03:15:56;95688.63;;;10.92;97.23
77207;BME280;66190;50.708;7.906;2023-05-10T03:18:28;95688.84;;;10.91;96.96
77207;BME280;66190;50.708;7.906;2023-05-10T03:20:59;95689.59;;;10.98;97.04
77207;BME280;66190;50.708;7.906;2023-05-10T03:23:32;95688.78;;;10.97;96.78
77207;BME280;66190;50.708;7.906;2023-05-10T03:25:59;95689.78;;;10.96;96.67
77207;BME280;66190;50.708;7.906;2023-05-10T03:28:25;95692.06;;;10.99;96.63
77207;BME280;66190;50.708;7.906;2023-05-10T03:30:53;95699.31;;;10.99;96.75
77207;BME280;66190;50.708;7.906;2023-05-10T03:33:19;95694.59;;;10.94;96.73
77207;BME280;66190;50.708;7.906;2023-05-10T03:35:45;95701.63;;;10.95;96.80
77207;BME280;66190;50.708;7.906;2023-05-10T03:38:14;95695.41;;;10.95;96.83
77207;BME280;66190;50.708;7.906;2023-05-10T03:40:39;95708.06;;;10.94;96.94
77207;BME280;66190;50.708;7.906;2023-05-10T03:43:05;95712.38;;;10.95;96.86
77207;BME280;66190;50.708;7.906;2023-05-10T03:45:30;95711.31;;;10.96;96.97
77207;BME280;66190;50.708;7.906;2023-05-10T03:47:57;95711.13;;;10.98;97.12
77207;BME280;66190;50.708;7.906;2023-05-10T03:50:23;95708.06;;;10.94;96.72
77207;BME280;66190;50.708;7.906;2023-05-10T03:52:48;95718.00;;;10.94;96.81
77207;BME280;66190;50.708;7.906;2023-05-10T03:55:13;95716.13;;;10.94;96.68
77207;BME280;66190;50.708;7.906;2023-05-10T03:57:39;95721.56;;;10.88;96.70
77207;BME280;66190;50.708;7.906;2023-05-10T04:00:05;95726.16;;;10.87;96.51
77207;BME280;66190;50.708;7.906;2023-05-10T04:02:30;95732.56;;;10.86;96.28
77207;BME280;66190;50.708;7.906;2023-05-10T04:04:56;95730.31;;;10.83;96.28
77207;BME280;66190;50.708;7.906;2023-05-10T04:07:21;95726.63;;;10.78;96.60
77207;BME280;66190;50.708;7.906;2023-05-10T04:09:47;95722.91;;;10.79;96.68
77207;BME280;66190;50.708;7.906;2023-05-10T04:12:12;95719.31;;;10.85;96.64
77207;BME280;66190;50.708;7.906;2023-05-10T04:14:38;95723.88;;;10.84;96.40
77207;BME280;66190;50.708;7.906;2023-05-10T04:17:03;95725.53;;;10.85;96.23
77207;BME280;66190;50.708;7.906;2023-05-10T04:19:32;95728.69;;;10.82;96.31
77207;BME280;66190;50.708;7.906;2023-05-10T04:21:58;95726.56;;;10.84;96.61
77207;BME280;66190;50.708;7.906;2023-05-10T04:24:24;95723.72;;;10.79;96.49
77207;BME280;66190;50.708;7.906;2023-05-10T04:26:49;95720.22;;;10.79;96.61
77207;BME280;66190;50.708;7.906;2023-05-10T04:29:14;95731.00;;;10.79;96.72
77207;BME280;66190;50.708;7.906;2023-05-10T04:31:40;95732.63;;;10.80;96.76
77207;BME280;66190;50.708;7.906;2023-05-10T04:34:05;95735.75;;;10.77;96.64
77207;BME280;66190;50.708;7.906;2023-05-10T04:36:31;95725.00;;;10.77;96.91
77207;BME280;66190;50.708;7.906;2023-05-10T04:38:58;95729.16;;;10.73;96.93
77207;BME280;66190;50.708;7.906;2023-05-10T04:41:23;95733.06;;;10.77;97.00
77207;BME280;66190;50.708;7.906;2023-05-10T04:43:49;95734.09;;;10.76;96.92
77207;BME280;66190;50.708;7.906;2023-05-10T04:46:15;95727.25;;;10.80;97.08
77207;BME280;66190;50.708;7.906;2023-05-10T04:48:40;95733.88;;;10.77;96.78
77207;BME280;66190;50.708;7.906;2023-05-10T04:51:06;95736.31;;;10.85;96.80
77207;BME280;66190;50.708;7.906;2023-05-10T04:53:32;95737.25;;;10.73;97.02
77207;BME280;66190;50.708;7.906;2023-05-10T04:55:57;95746.53;;;10.77;96.96
77207;BME280;66190;50.708;7.906;2023-05-10T04:58:22;95752.50;;;10.79;96.95
77207;BME280;66190;50.708;7.906;2023-05-10T05:00:48;95748.09;;;10.84;97.12
77207;BME280;66190;50.708;7.906;2023-05-10T05:03:13;95748.31;;;10.83;97.22
77207;BME280;66190;50.708;7.906;2023-05-10T05:05:39;95754.91;;;10.87;97.07
77207;BME280;66190;50.708;7.906;2023-05-10T05:08:05;95752.81;;;10.89;97.10
77207;BME280;66190;50.708;7.906;2023-05-10T05:10:30;95750.78;;;10.84;97.03
77207;BME280;66190;50.708;7.906;2023-05-10T05:12:56;95757.91;;;10.79;97.27
77207;BME280;66190;50.708;7.906;2023-05-10T05:15:21;95762.22;;;10.80;97.57
77207;BME280;66190;50.708;7.906;2023-05-10T05:17:47;95763.44;;;10.84;97.53
77207;BME280;66190;50.708;7.906;2023-05-10T05:20:12;95775.84;;;10.85;97.62
77207;BME280;66190;50.708;7.906;2023-05-10T05:22:38;95768.81;;;10.84;97.91
77207;BME280;66190;50.708;7.906;2023-05-10T05:25:04;95779.75;;;10.89;97.97
77207;BME280;66190;50.708;7.906;2023-05-10T05:27:29;95784.13;;;10.83;97.92
77207;BME280;66190;50.708;7.906;2023-05-10T05:29:56;95781.44;;;10.83;97.87
77207;BME280;66190;50.708;7.906;2023-05-10T05:32:22;95793.03;;;10.84;98.03
77207;BME280;66190;50.708;7.906;2023-05-10T05:34:48;95791.53;;;10.88;97.96
77207;BME280;66190;50.708;7.906;2023-05-10T05:37:14;95794.66;;;10.85;97.99
77207;BME280;66190;50.708;7.906;2023-05-10T05:39:39;95793.66;;;10.86;97.87
77207;BME280;66190;50.708;7.906;2023-05-10T05:42:05;95795.50;;;10.85;97.70
77207;BME280;66190;50.708;7.906;2023-05-10T05:44:30;95794.03;;;10.89;97.87
77207;BME280;66190;50.708;7.906;2023-05-10T05:46:56;95797.53;;;10.90;97.87
77207;BME280;66190;50.708;7.906;2023-05-10T05:49:21;95800.66;;;10.87;97.82
77207;BME280;66190;50.708;7.906;2023-05-10T05:51:46;95801.72;;;10.86;97.95
77207;BME280;66190;50.708;7.906;2023-05-10T05:54:14;95800.22;;;10.90;98.04
77207;BME280;66190;50.708;7.906;2023-05-10T05:56:40;95808.22;;;10.96;98.15
77207;BME280;66190;50.708;7.906;2023-05-10T05:59:05;95810.50;;;10.99;97.99
77207;BME280;66190;50.708;7.906;2023-05-10T06:01:31;95808.56;;;11.06;97.92
77207;BME280;66190;50.708;7.906;2023-05-10T06:03:56;95810.28;;;11.01;97.33
77207;BME280;66190;50.708;7.906;2023-05-10T06:06:21;95809.81;;;11.04;97.06
77207;BME280;66190;50.708;7.906;2023-05-10T06:08:47;95811.88;;;11.08;96.84
77207;BME280;66190;50.708;7.906;2023-05-10T06:11:12;95811.78;;;11.15;96.79
77207;BME280;66190;50.708;7.906;2023-05-10T06:13:37;95814.75;;;11.07;96.42
77207;BME280;66190;50.708;7.906;2023-05-10T06:16:03;95817.03;;;11.10;96.79
77207;BME280;66190;50.708;7.906;2023-05-10T06:18:28;95818.66;;;11.11;96.57
77207;BME280;66190;50.708;7.906;2023-05-10T06:20:54;95822.56;;;11.15;96.55
77207;BME280;66190;50.708;7.906;2023-05-10T06:23:19;95827.56;;;11.11;96.71
77207;BME280;66190;50.708;7.906;2023-05-10T06:25:45;95828.19;;;11.13;96.81
77207;BME280;66190;50.708;7.906;2023-05-10T06:28:10;95831.44;;;11.15;96.94
77207;BME280;66190;50.708;7.906;2023-05-10T06:30:36;95827.56;;;11.11;96.85
77207;BME280;66190;50.708;7.906;2023-05-10T06:33:02;95832.56;;;11.08;96.51
77207;BME280;66190;50.708;7.906;2023-05-10T06:35:28;95831.56;;;11.27;96.88
77207;BME280;66190;50.708;7.906;2023-05-10T06:37:53;95830.50;;;11.28;96.60
77207;BME280;66190;50.708;7.906;2023-05-10T06:40:19;95831.19;;;11.23;96.47
77207;BME280;66190;50.708;7.906;2023-05-10T06:42:44;95829.03;;;11.32;96.39
77207;BME280;66190;50.708;7.906;2023-05-10T06:45:10;95829.69;;;11.27;96.20
77207;BME280;66190;50.708;7.906;2023-05-10T06:47:36;95838.16;;;11.31;96.01
77207;BME280;66190;50.708;7.906;2023-05-10T06:50:01;95844.13;;;11.33;95.97
77207;BME280;66190;50.708;7.906;2023-05-10T06:52:27;95832.16;;;11.29;95.70
77207;BME280;66190;50.708;7.906;2023-05-10T06:54:52;95839.72;;;11.38;96.09
77207;BME280;66190;50.708;7.906;2023-05-10T06:57:17;95840.56;;;11.39;95.96
77207;BME280;66190;50.708;7.906;2023-05-10T06:59:43;95842.78;;;11.42;95.63
77207;BME280;66190;50.708;7.906;2023-05-10T07:02:09;95845.09;;;11.38;95.41
77207;BME280;66190;50.708;7.906;2023-05-10T07:04:34;95852.34;;;11.38;95.44
77207;BME280;66190;50.708;7.906;2023-05-10T07:07:00;95851.56;;;11.37;94.98
77207;BME280;66190;50.708;7.906;2023-05-10T07:09:25;95853.19;;;11.38;95.01
77207;BME280;66190;50.708;7.906;2023-05-10T07:11:50;95852.16;;;11.39;94.72
77207;BME280;66190;50.708;7.906;2023-05-10T07:14:16;95855.72;;;11.33;94.85
77207;BME280;66190;50.708;7.906;2023-05-10T07:16:41;95858.34;;;11.40;95.07
77207;BME280;66190;50.708;7.906;2023-05-10T07:19:07;95859.41;;;11.39;95.31
77207;BME280;66190;50.708;7.906;2023-05-10T07:21:32;95867.56;;;11.32;95.36
77207;BME280;66190;50.708;7.906;2023-05-10T07:23:58;95869.34;;;11.38;95.65
77207;BME280;66190;50.708;7.906;2023-05-10T07:26:23;95865.81;;;11.38;95.62
77207;BME280;66190;50.708;7.906;2023-05-10T07:28:49;95875.34;;;11.40;95.67
77207;BME280;66190;50.708;7.906;2023-05-10T07:31:14;95872.81;;;11.45;95.56
77207;BME280;66190;50.708;7.906;2023-05-10T07:33:40;95871.59;;;11.41;95.21
77207;BME280;66190;50.708;7.906;2023-05-10T07:36:05;95876.72;;;11.50;95.35
77207;BME280;66190;50.708;7.906;2023-05-10T07:38:31;95875.13;;;11.42;95.33
77207;BME280;66190;50.708;7.906;2023-05-10T07:40:56;95872.56;;;11.47;95.34
77207;BME280;66190;50.708;7.906;2023-05-10T07:43:22;95873.63;;;11.46;95.37
77207;BME280;66190;50.708;7.906;2023-05-10T07:45:47;95875.50;;;11.45;95.56
77207;BME280;66190;50.708;7.906;2023-05-10T07:48:13;95887.09;;;11.46;95.39
77207;BME280;66190;50.708;7.906;2023-05-10T07:50:38;95890.28;;;11.36;95.42
77207;BME280;66190;50.708;7.906;2023-05-10T07:53:03;95892.34;;;11.41;95.74
77207;BME280;66190;50.708;7.906;2023-05-10T07:55:29;95879.25;;;11.44;95.36
77207;BME280;66190;50.708;7.906;2023-05-10T07:57:55;95887.25;;;11.51;95.32
77207;BME280;66190;50.708;7.906;2023-05-10T08:00:20;95891.78;;;11.57;95.31
77207;BME280;66190;50.708;7.906;2023-05-10T08:02:46;95887.94;;;11.47;94.94
77207;BME280;66190;50.708;7.906;2023-05-10T08:05:12;95891.00;;;11.50;95.03
77207;BME280;66190;50.708;7.906;2023-05-10T08:07:38;95893.88;;;11.55;95.20
77207;BME280;66190;50.708;7.906;2023-05-10T08:10:05;95898.72;;;11.47;94.60
77207;BME280;66190;50.708;7.906;2023-05-10T08:12:30;95895.03;;;11.41;94.36
77207;BME280;66190;50.708;7.906;2023-05-10T08:14:56;95896.06;;;11.40;94.66
77207;BME280;66190;50.708;7.906;2023-05-10T08:17:22;95902.38;;;11.52;94.84
77207;BME280;66190;50.708;7.906;2023-05-10T08:19:47;95901.72;;;11.57;94.73
77207;BME280;66190;50.708;7.906;2023-05-10T08:22:12;95896.41;;;11.50;93.38
77207;BME280;66190;50.708;7.906;2023-05-10T08:24:38;95912.13;;;11.53;93.65
77207;BME280;66190;50.708;7.906;2023-05-10T08:27:07;95911.41;;;11.64;93.46
77207;BME280;66190;50.708;7.906;2023-05-10T08:29:33;95905.88;;;11.77;93.78
77207;BME280;66190;50.708;7.906;2023-05-10T08:31:59;95911.22;;;11.84;94.09
77207;BME280;66190;50.708;7.906;2023-05-10T08:34:26;95914.28;;;11.87;93.63
77207;BME280;66190;50.708;7.906;2023-05-10T08:36:51;95912.34;;;11.94;93.08
77207;BME280;66190;50.708;7.906;2023-05-10T08:39:17;95918.84;;;11.87;92.55
77207;BME280;66190;50.708;7.906;2023-05-10T08:41:44;95919.91;;;12.04;93.33
77207;BME280;66190;50.708;7.906;2023-05-10T08:44:10;95919.69;;;12.05;92.98
77207;BME280;66190;50.708;7.906;2023-05-10T08:46:37;95918.88;;;12.23;93.35
77207;BME280;66190;50.708;7.906;2023-05-10T08:49:06;95919.00;;;12.28;91.92
77207;BME280;66190;50.708;7.906;2023-05-10T08:51:36;95925.81;;;12.30;91.59
77207;BME280;66190;50.708;7.906;2023-05-10T08:54:03;95922.44;;;12.35;91.64
77207;BME280;66190;50.708;7.906;2023-05-10T08:56:29;95921.53;;;12.41;91.20
77207;BME280;66190;50.708;7.906;2023-05-10T08:58:55;95926.56;;;12.37;90.68
77207;BME280;66190;50.708;7.906;2023-05-10T09:01:22;95918.69;;;12.36;90.74
77207;BME280;66190;50.708;7.906;2023-05-10T09:03:49;95936.53;;;12.19;90.32
77207;BME280;66190;50.708;7.906;2023-05-10T09:06:15;95928.53;;;12.12;91.59
77207;BME280;66190;50.708;7.906;2023-05-10T09:08:44;95937.50;;;12.06;92.23
77207;BME280;66190;50.708;7.906;2023-05-10T09:11:11;95939.22;;;11.83;92.53
77207;BME280;66190;50.708;7.906;2023-05-10T09:13:37;95952.94;;;11.81;93.21
77207;BME280;66190;50.708;7.906;2023-05-10T09:16:03;95947.19;;;11.71;93.35
77207;BME280;66190;50.708;7.906;2023-05-10T09:18:29;95953.03;;;11.68;93.51
77207;BME280;66190;50.708;7.906;2023-05-10T09:20:54;95951.56;;;11.72;93.81
77207;BME280;66190;50.708;7.906;2023-05-10T09:23:20;95952.59;;;11.71;93.79
77207;BME280;66190;50.708;7.906;2023-05-10T09:25:45;95955.66;;;11.75;94.00
77207;BME280;66190;50.708;7.906;2023-05-10T09:28:11;95953.84;;;11.93;94.80
77207;BME280;66190;50.708;7.906;2023-05-10T09:30:37;95960.03;;;11.94;94.13
77207;BME280;66190;50.708;7.906;2023-05-10T09:33:02;95964.09;;;12.03;94.76
77207;BME280;66190;50.708;7.906;2023-05-10T09:35:30;95963.34;;;11.96;93.93
77207;BME280;66190;50.708;7.906;2023-05-10T09:37:59;95965.41;;;11.94;93.52
77207;BME280;66190;50.708;7.906;2023-05-10T09:40:26;95957.66;;;12.04;94.43
77207;BME280;66190;50.708;7.906;2023-05-10T09:43:03;95964.84;;;12.10;93.91
77207;BME280;66190;50.708;7.906;2023-05-10T09:45:33;95964.72;;;12.23;94.21
77207;BME280;66190;50.708;7.906;2023-05-10T09:48:01;95959.56;;;12.21;93.25
77207;BME280;66190;50.708;7.906;2023-05-10T09:50:28;95959.75;;;12.20;92.52
77207;BME280;66190;50.708;7.906;2023-05-10T09:53:01;95960.00;;;12.36;93.12
77207;BME280;66190;50.708;7.906;2023-05-10T09:55:44;95964.69;;;12.41;91.80
77207;BME280;66190;50.708;7.906;2023-05-10T09:58:10;95965.72;;;12.58;91.94
77207;BME280;66190;50.708;7.906;2023-05-10T10:00:40;95964.13;;;12.69;92.29
77207;BME280;66190;50.708;7.906;2023-05-10T10:03:06;95958.13;;;12.85;91.87
77207;BME280;66190;50.708;7.906;2023-05-10T10:05:35;95959.84;;;12.79;91.11
77207;BME280;66190;50.708;7.906;2023-05-10T10:08:03;95967.03;;;12.85;90.47
77207;BME280;66190;50.708;7.906;2023-05-10T10:10:30;95969.75;;;12.85;91.16
77207;BME280;66190;50.708;7.906;2023-05-10T10:12:56;95964.47;;;12.90;90.67
77207;BME280;66190;50.708;7.906;2023-05-10T10:15:23;95966.34;;;12.90;90.56
77207;BME280;66190;50.708;7.906;2023-05-10T10:17:49;95961.41;;;12.87;91.47
77207;BME280;66190;50.708;7.906;2023-05-10T10:20:15;95965.84;;;12.81;91.13
77207;BME280;66190;50.708;7.906;2023-05-10T10:22:41;95969.53;;;12.69;90.89
77207;BME280;66190;50.708;7.906;2023-05-10T10:25:07;95965.91;;;12.63;90.69
77207;BME280;66190;50.708;7.906;2023-05-10T10:35:31;95966.69;;;12.64;92.58
77207;BME280;66190;50.708;7.906;2023-05-10T10:37:58;95967.84;;;12.56;91.45
77207;BME280;66190;50.708;7.906;2023-05-10T10:42:51;95969.94;;;12.54;92.31
77207;BME280;66190;50.708;7.906;2023-05-10T10:45:16;95967.63;;;12.57;93.01
77207;BME280;66190;50.708;7.906;2023-05-10T10:47:42;95971.44;;;12.50;92.48
77207;BME280;66190;50.708;7.906;2023-05-10T10:50:08;95971.34;;;12.56;92.93
77207;BME280;66190;50.708;7.906;2023-05-10T10:52:40;95974.88;;;12.39;90.82
77207;BME280;66190;50.708;7.906;2023-05-10T10:55:17;95973.13;;;11.90;90.88
77207;BME280;66190;50.708;7.906;2023-05-10T10:57:50;95980.00;;;11.62;91.68
77207;BME280;66190;50.708;7.906;2023-05-10T11:00:21;95979.78;;;11.63;92.97
77207;BME280;66190;50.708;7.906;2023-05-10T11:02:49;95982.94;;;11.60;93.09
77207;BME280;66190;50.708;7.906;2023-05-10T11:07:59;95998.94;;;11.55;94.83
77207;BME280;66190;50.708;7.906;2023-05-10T11:10:25;95997.50;;;11.53;94.81
77207;BME280;66190;50.708;7.906;2023-05-10T11:13:11;95998.50;;;11.58;95.04
77207;BME280;66190;50.708;7.906;2023-05-10T11:15:39;96001.56;;;11.62;94.83
77207;BME280;66190;50.708;7.906;2023-05-10T11:21:01;96004.63;;;11.72;94.49
77207;BME280;66190;50.708;7.906;2023-05-10T11:26:09;96001.56;;;11.62;94.38
77207;BME280;66190;50.708;7.906;2023-05-10T11:28:41;96010.06;;;11.65;94.45
77207;BME280;66190;50.708;7.906;2023-05-10T11:31:07;96004.22;;;11.68;94.21
77207;BME280;66190;50.708;7.906;2023-05-10T11:33:51;96009.53;;;11.81;94.73
77207;BME280;66190;50.708;7.906;2023-05-10T11:36:19;96009.47;;;11.88;94.65
77207;BME280;66190;50.708;7.906;2023-05-10T11:38:46;96014.56;;;11.96;93.80
77207;BME280;66190;50.708;7.906;2023-05-10T11:41:12;96017.19;;;12.02;93.89
77207;BME280;66190;50.708;7.906;2023-05-10T11:43:41;96023.69;;;12.19;93.69
77207;BME280;66190;50.708;7.906;2023-05-10T11:46:11;96019.47;;;12.23;93.29
77207;BME280;66190;50.708;7.906;2023-05-10T11:48:39;96019.72;;;12.40;93.37
77207;BME280;66190;50.708;7.906;2023-05-10T11:51:05;96017.03;;;12.40;92.32
77207;BME280;66190;50.708;7.906;2023-05-10T11:53:32;96016.72;;;12.48;92.08
77207;BME280;66190;50.708;7.906;2023-05-10T11:56:08;96018.16;;;12.50;91.95
77207;BME280;66190;50.708;7.906;2023-05-10T11:58:36;96016.19;;;12.57;91.63
77207;BME280;66190;50.708;7.906;2023-05-10T12:01:03;96020.22;;;12.67;90.97
77207;BME280;66190;50.708;7.906;2023-05-10T12:03:30;96024.19;;;12.82;92.21
77207;BME280;66190;50.708;7.906;2023-05-10T12:05:56;96018.63;;;12.95;91.85
77207;BME280;66190;50.708;7.906;2023-05-10T12:08:24;96016.44;;;13.04;90.02
77207;BME280;66190;50.708;7.906;2023-05-10T12:10:50;96017.72;;;13.31;90.88
77207;BME280;66190;50.708;7.906;2023-05-10T12:13:16;96014.94;;;13.37;89.80
77207;BME280;66190;50.708;7.906;2023-05-10T12:15:42;96013.19;;;13.43;88.55
77207;BME280;66190;50.708;7.906;2023-05-10T12:18:12;96018.53;;;13.73;88.74
77207;BME280;66190;50.708;7.906;2023-05-10T12:20:39;96014.81;;;13.97;88.32
77207;BME280;66190;50.708;7.906;2023-05-10T12:23:05;96018.34;;;14.09;86.57
77207;BME280;66190;50.708;7.906;2023-05-10T12:25:34;96017.28;;;13.98;86.22
77207;BME280;66190;50.708;7.906;2023-05-10T12:28:04;96024.34;;;13.99;83.19
77207;BME280;66190;50.708;7.906;2023-05-10T12:30:32;96017.88;;;14.12;86.24
77207;BME280;66190;50.708;7.906;2023-05-10T12:33:03;96017.53;;;14.08;86.19
77207;BME280;66190;50.708;7.906;2023-05-10T12:35:32;96025.16;;;14.00;85.50
77207;BME280;66190;50.708;7.906;2023-05-10T12:37:58;96032.63;;;13.63;85.44
77207;BME280;66190;50.708;7.906;2023-05-10T12:40:24;96036.56;;;13.37;84.14
77207;BME280;66190;50.708;7.906;2023-05-10T12:42:50;96036.56;;;13.37;86.29
77207;BME280;66190;50.708;7.906;2023-05-10T12:45:17;96026.19;;;13.34;86.72
77207;BME280;66190;50.708;7.906;2023-05-10T12:47:42;96037.22;;;13.33;87.48
77207;BME280;66190;50.708;7.906;2023-05-10T12:50:08;96041.06;;;12.96;87.84
77207;BME280;66190;50.708;7.906;2023-05-10T12:52:34;96048.03;;;12.85;88.26
77207;BME280;66190;50.708;7.906;2023-05-10T12:55:00;96042.88;;;12.84;89.47
77207;BME280;66190;50.708;7.906;2023-05-10T12:57:26;96055.41;;;12.78;89.40
77207;BME280;66190;50.708;7.906;2023-05-10T12:59:52;96055.63;;;12.77;90.48
77207;BME280;66190;50.708;7.906;2023-05-10T13:02:17;96058.97;;;12.36;89.14
77207;BME280;66190;50.708;7.906;2023-05-10T13:04:44;96055.81;;;12.21;89.72
77207;BME280;66190;50.708;7.906;2023-05-10T13:07:10;96065.38;;;12.17;90.38
77207;BME280;66190;50.708;7.906;2023-05-10T13:09:35;96067.38;;;12.03;90.04
77207;BME280;66190;50.708;7.906;2023-05-10T13:12:01;96063.00;;;11.84;90.75
77207;BME280;66190;50.708;7.906;2023-05-10T13:14:27;96076.19;;;11.92;91.64
77207;BME280;66190;50.708;7.906;2023-05-10T13:16:52;96066.84;;;11.95;91.29
77207;BME280;66190;50.708;7.906;2023-05-10T13:19:18;96073.66;;;11.97;91.88
77207;BME280;66190;50.708;7.906;2023-05-10T13:21:44;96072.63;;;11.98;91.50
77207;BME280;66190;50.708;7.906;2023-05-10T13:24:18;96063.47;;;11.99;91.41
77207;BME280;66190;50.708;7.906;2023-05-10T13:26:43;96059.75;;;12.00;91.35
77207;BME280;66190;50.708;7.906;2023-05-10T13:29:09;96066.22;;;11.93;91.47
77207;BME280;66190;50.708;7.906;2023-05-10T13:31:34;96065.44;;;12.10;92.02